Time;durP1;ratioP1;P1;durP2;ratioP2;P2;SDS_P1;SDS_P2;PMS_P1;PMS_P2;Temp;Humidity;BMP_temperature;BMP_pressure;BME280_temperature;BME280_humidity;BME280_pressure;Samples;Min_cycle;Max_cycle;Signal;HPM_P1;HPM_P2
2023/12/12 00:01:04;;;;;;;0.00;0.00;;;11.90;73.90;;;;;;5057440;28;20226;-34
2023/12/12 00:03:34;;;;;;;0.00;0.00;;;11.80;73.80;;;;;;5046078;28;20256;-34
2023/12/12 00:06:01;;;;;;;0.00;0.00;;;11.80;73.90;;;;;;5074598;28;20281;-34
2023/12/12 00:08:28;;;;;;;0.00;0.00;;;11.80;73.90;;;;;;5049295;28;20204;-34
2023/12/12 00:11:00;;;;;;;0.00;0.00;;;11.80;73.90;;;;;;5078836;28;20610;-34
2023/12/12 00:13:27;;;;;;;0.00;0.00;;;11.80;73.90;;;;;;5047118;28;20227;-34
2023/12/12 00:15:57;;;;;;;0.00;0.00;;;11.80;73.90;;;;;;5057141;28;20216;-34
2023/12/12 00:18:24;;;;;;;0.00;0.00;;;11.80;73.90;;;;;;5053456;28;20216;-34
2023/12/12 00:20:54;;;;;;;0.00;0.00;;;11.70;73.80;;;;;;5046220;28;20991;-34
2023/12/12 00:23:21;;;;;;;0.00;0.00;;;11.70;73.90;;;;;;5049242;28;20193;-35
2023/12/12 00:25:51;;;;;;;0.00;0.00;;;11.70;73.90;;;;;;5051405;28;20207;-34
2023/12/12 00:28:18;;;;;;;0.00;0.00;;;11.70;73.90;;;;;;5052354;28;20200;-33
2023/12/12 00:30:45;;;;;;;0.00;0.00;;;11.70;73.90;;;;;;5063469;28;20790;-34
2023/12/12 00:33:14;;;;;;;0.00;0.00;;;11.60;73.80;;;;;;5057009;28;20501;-34
2023/12/12 00:35:42;;;;;;;0.00;0.00;;;11.60;73.80;;;;;;5052860;28;20212;-34
2023/12/12 00:38:11;;;;;;;0.00;0.00;;;11.60;73.90;;;;;;5057938;28;20196;-34
2023/12/12 00:40:39;;;;;;;0.00;0.00;;;11.60;73.90;;;;;;5059450;28;20224;-34
2023/12/12 00:43:10;;;;;;;0.00;0.00;;;11.60;74.00;;;;;;5045956;28;20286;-34
2023/12/12 00:45:37;;;;;;;0.00;0.00;;;11.60;74.00;;;;;;5049586;28;20195;-35
2023/12/12 00:48:09;;;;;;;0.00;0.00;;;11.60;74.00;;;;;;5047202;28;20234;-34
2023/12/12 00:50:37;;;;;;;0.00;0.00;;;11.60;74.00;;;;;;5046924;28;20299;-34
2023/12/12 00:53:04;;;;;;;0.00;0.00;;;11.60;74.00;;;;;;5076926;28;20215;-34
2023/12/12 00:55:33;;;;;;;0.00;0.00;;;11.60;74.00;;;;;;5050366;28;20728;-34
2023/12/12 00:58:04;;;;;;;0.00;0.00;;;11.60;74.00;;;;;;5052077;28;20211;-34
2023/12/12 01:00:35;;;;;;;0.00;0.00;;;11.60;74.00;;;;;;5063096;28;20200;-34
2023/12/12 01:03:08;;;;;;;0.00;0.00;;;11.60;74.10;;;;;;5056458;28;20231;-34
2023/12/12 01:05:36;;;;;;;0.00;0.00;;;11.60;74.10;;;;;;5052147;28;20239;-35
2023/12/12 01:08:03;;;;;;;0.00;0.00;;;11.60;74.10;;;;;;5058952;28;20234;-34
2023/12/12 01:10:30;;;;;;;0.00;0.00;;;11.60;74.10;;;;;;5056683;28;20681;-34
2023/12/12 01:13:01;;;;;;;0.00;0.00;;;11.60;74.20;;;;;;5061066;28;20204;-34
2023/12/12 01:15:29;;;;;;;0.00;0.00;;;11.60;74.10;;;;;;5061129;28;20302;-34
2023/12/12 01:18:00;;;;;;;0.00;0.00;;;11.60;74.10;;;;;;5050580;28;20220;-34
2023/12/12 01:20:30;;;;;;;0.00;0.00;;;11.60;74.20;;;;;;5054199;28;20191;-34
2023/12/12 01:22:57;;;;;;;0.00;0.00;;;11.60;74.20;;;;;;5066222;28;20252;-35
2023/12/12 01:25:24;;;;;;;0.00;0.00;;;11.60;74.20;;;;;;5054916;28;20573;-35
2023/12/12 01:27:59;;;;;;;0.00;0.00;;;11.60;74.20;;;;;;5053933;28;20281;-34
2023/12/12 01:30:26;;;;;;;0.00;0.00;;;11.60;74.20;;;;;;5066924;28;20207;-35
2023/12/12 01:32:53;;;;;;;0.00;0.00;;;11.60;74.20;;;;;;5060964;28;20627;-34
2023/12/12 01:35:20;;;;;;;0.00;0.00;;;11.60;74.30;;;;;;5062724;28;20264;-35
2023/12/12 01:37:50;;;;;;;0.00;0.00;;;11.60;74.20;;;;;;5061851;28;20199;-35
2023/12/12 01:40:19;;;;;;;0.00;0.00;;;11.70;74.30;;;;;;5064357;28;20236;-35
2023/12/12 01:42:47;;;;;;;0.00;0.00;;;11.70;74.30;;;;;;5053419;28;20239;-34
2023/12/12 01:45:14;;;;;;;0.00;0.00;;;11.70;74.30;;;;;;5064110;28;20199;-34
2023/12/12 01:47:46;;;;;;;0.00;0.00;;;11.70;74.20;;;;;;5054235;28;20287;-34
2023/12/12 01:50:18;;;;;;;0.00;0.00;;;11.70;74.20;;;;;;5066292;28;20282;-34
2023/12/12 01:52:45;;;;;;;0.00;0.00;;;11.70;74.20;;;;;;5064816;28;20195;-34
2023/12/12 01:55:15;;;;;;;0.00;0.00;;;11.70;74.20;;;;;;5064182;28;20286;-34
2023/12/12 01:57:42;;;;;;;0.00;0.00;;;11.70;74.30;;;;;;5058197;28;20570;-35
2023/12/12 02:00:12;;;;;;;0.00;0.00;;;11.70;74.30;;;;;;5057509;28;20237;-35
2023/12/12 02:02:39;;;;;;;0.00;0.00;;;11.70;74.30;;;;;;5047146;28;20593;-34
2023/12/12 02:05:09;;;;;;;0.00;0.00;;;11.70;74.30;;;;;;5056584;28;20211;-35
2023/12/12 02:07:40;;;;;;;0.00;0.00;;;11.70;74.30;;;;;;5063384;28;20295;-34
2023/12/12 02:10:12;;;;;;;0.00;0.00;;;11.70;74.40;;;;;;5061190;28;20615;-34
2023/12/12 02:12:39;;;;;;;0.00;0.00;;;11.70;74.40;;;;;;5051677;28;20315;-34
2023/12/12 02:15:07;;;;;;;0.00;0.00;;;11.70;74.40;;;;;;5051173;28;20241;-34
2023/12/12 02:17:36;;;;;;;0.00;0.00;;;11.70;74.40;;;;;;5059582;28;20516;-34
2023/12/12 02:20:10;;;;;;;0.00;0.00;;;11.80;74.50;;;;;;5052252;28;20253;-34
2023/12/12 02:22:37;;;;;;;0.00;0.00;;;11.80;74.60;;;;;;5052720;28;20227;-33
2023/12/12 02:25:07;;;;;;;0.00;0.00;;;11.80;74.50;;;;;;5067426;28;20789;-34
2023/12/12 02:27:37;;;;;;;0.00;0.00;;;11.80;74.50;;;;;;5072111;28;20195;-33
2023/12/12 02:30:08;;;;;;;0.00;0.00;;;11.80;74.60;;;;;;5088974;28;20218;-34
2023/12/12 02:32:38;;;;;;;0.00;0.00;;;11.80;74.60;;;;;;5087150;28;20223;-34
2023/12/12 02:35:05;;;;;;;0.00;0.00;;;11.90;74.60;;;;;;5086851;28;20546;-33
2023/12/12 02:37:35;;;;;;;0.00;0.00;;;11.90;74.60;;;;;;5081373;28;20671;-34
2023/12/12 02:40:03;;;;;;;0.00;0.00;;;11.90;74.60;;;;;;5071738;28;20214;-34
2023/12/12 02:42:33;;;;;;;0.00;0.00;;;11.90;74.60;;;;;;5085634;28;20223;-34
2023/12/12 02:45:00;;;;;;;0.00;0.00;;;11.90;74.60;;;;;;5070486;28;20219;-34
2023/12/12 02:47:27;;;;;;;0.00;0.00;;;11.90;74.60;;;;;;5066363;28;20311;-33
2023/12/12 02:49:55;;;;;;;0.00;0.00;;;11.90;74.50;;;;;;5064706;28;20753;-34
2023/12/12 02:52:24;;;;;;;0.00;0.00;;;12.00;74.60;;;;;;5066087;28;20207;-34
2023/12/12 02:54:52;;;;;;;0.00;0.00;;;12.00;74.60;;;;;;5061088;28;20581;-34
2023/12/12 02:57:22;;;;;;;0.00;0.00;;;12.00;74.60;;;;;;5055057;28;20238;-34
2023/12/12 02:59:50;;;;;;;0.00;0.00;;;12.00;74.60;;;;;;5064073;28;20716;-33
2023/12/12 03:02:22;;;;;;;0.00;0.00;;;12.00;74.60;;;;;;5057928;28;20249;-33
2023/12/12 03:04:49;;;;;;;0.00;0.00;;;12.00;74.60;;;;;;5058936;28;20200;-33
2023/12/12 03:07:16;;;;;;;0.00;0.00;;;12.00;74.60;;;;;;5053506;28;20297;-34
2023/12/12 03:09:43;;;;;;;0.00;0.00;;;12.00;74.60;;;;;;5043298;28;20292;-33
2023/12/12 03:12:15;;;;;;;0.00;0.00;;;12.10;74.70;;;;;;5046915;28;20691;-34
2023/12/12 03:14:44;;;;;;;0.00;0.00;;;12.10;74.70;;;;;;5044659;28;20215;-33
2023/12/12 03:17:12;;;;;;;0.00;0.00;;;12.10;74.80;;;;;;5044475;28;20216;-34
2023/12/12 03:19:41;;;;;;;0.00;0.00;;;12.10;74.80;;;;;;5043813;28;20204;-34
2023/12/12 03:22:09;;;;;;;0.00;0.00;;;12.20;74.80;;;;;;5052565;28;20211;-34
2023/12/12 03:24:38;;;;;;;0.00;0.00;;;12.20;74.80;;;;;;5062456;28;20196;-34
2023/12/12 03:27:08;;;;;;;0.00;0.00;;;12.20;74.80;;;;;;5065867;28;20211;-33
2023/12/12 03:29:35;;;;;;;0.00;0.00;;;12.20;74.80;;;;;;5071363;28;20187;-33
2023/12/12 03:32:05;;;;;;;0.00;0.00;;;12.20;74.70;;;;;;5054313;28;20223;-33
2023/12/12 03:34:34;;;;;;;0.00;0.00;;;12.20;74.80;;;;;;5050741;28;20220;-34
2023/12/12 03:37:04;;;;;;;0.00;0.00;;;12.20;74.80;;;;;;5049181;28;20200;-34
2023/12/12 03:39:35;;;;;;;0.00;0.00;;;12.30;74.80;;;;;;5048322;28;20199;-33
2023/12/12 03:42:03;;;;;;;0.00;0.00;;;12.30;74.80;;;;;;5069693;28;20285;-33
2023/12/12 03:44:32;;;;;;;0.00;0.00;;;12.30;74.80;;;;;;5070486;28;21030;-34
2023/12/12 03:47:05;;;;;;;0.00;0.00;;;12.30;74.80;;;;;;5069018;28;20207;-33
2023/12/12 03:49:34;;;;;;;0.00;0.00;;;12.30;74.80;;;;;;5064136;28;20200;-34
2023/12/12 03:52:02;;;;;;;0.00;0.00;;;12.30;74.80;;;;;;5061443;28;20223;-34
2023/12/12 03:54:32;;;;;;;0.00;0.00;;;12.30;74.80;;;;;;5072338;28;20203;-33
2023/12/12 03:57:03;;;;;;;0.00;0.00;;;12.30;74.80;;;;;;5071355;28;20207;-33
2023/12/12 03:59:30;;;;;;;0.00;0.00;;;12.30;74.80;;;;;;5072450;28;20261;-33
2023/12/12 04:01:57;;;;;;;0.00;0.00;;;12.30;74.90;;;;;;5069832;28;20231;-33
2023/12/12 04:04:27;;;;;;;0.00;0.00;;;12.40;74.80;;;;;;5069265;28;20336;-33
2023/12/12 04:06:54;;;;;;;0.00;0.00;;;12.40;74.80;;;;;;5052329;28;20235;-34
2023/12/12 04:09:21;;;;;;;0.00;0.00;;;12.40;74.80;;;;;;5065898;28;20254;-34
2023/12/12 04:11:48;;;;;;;0.00;0.00;;;12.40;74.80;;;;;;5055403;28;20677;-34
2023/12/12 04:14:17;;;;;;;0.00;0.00;;;12.40;74.80;;;;;;5065152;28;20257;-33
2023/12/12 04:16:46;;;;;;;0.00;0.00;;;12.40;74.80;;;;;;5069674;28;20288;-34
2023/12/12 04:19:16;;;;;;;0.00;0.00;;;12.40;74.80;;;;;;5068253;28;20258;-33
2023/12/12 04:21:45;;;;;;;0.00;0.00;;;12.40;74.80;;;;;;5062949;28;20208;-34
2023/12/12 04:24:15;;;;;;;0.00;0.00;;;12.40;75.60;;;;;;5050526;28;20193;-34
2023/12/12 04:26:49;;;;;;;0.00;0.00;;;12.40;74.70;;;;;;5060281;28;20206;-33
2023/12/12 04:29:19;;;;;;;0.00;0.00;;;12.40;74.80;;;;;;5066198;28;20217;-33
2023/12/12 04:31:50;;;;;;;0.00;0.00;;;12.40;74.70;;;;;;5065057;28;21092;-33
2023/12/12 04:34:20;;;;;;;0.00;0.00;;;12.40;74.70;;;;;;5058778;28;20282;-34
2023/12/12 04:36:49;;;;;;;0.00;0.00;;;12.40;74.80;;;;;;5057001;28;20196;-33
2023/12/12 04:39:20;;;;;;;0.00;0.00;;;12.40;74.80;;;;;;5053156;28;20295;-33
2023/12/12 04:41:47;;;;;;;0.00;0.00;;;12.30;74.80;;;;;;5053695;28;20203;-33
2023/12/12 04:44:19;;;;;;;0.00;0.00;;;12.30;74.80;;;;;;5062763;28;20214;-33
2023/12/12 04:46:46;;;;;;;0.00;0.00;;;12.40;74.80;;;;;;5083028;28;20210;-33
2023/12/12 04:49:16;;;;;;;0.00;0.00;;;12.40;74.80;;;;;;5052162;28;20224;-33
2023/12/12 04:51:46;;;;;;;0.00;0.00;;;12.30;74.80;;;;;;5063637;28;20201;-33
2023/12/12 04:54:16;;;;;;;0.00;0.00;;;12.30;74.80;;;;;;5054765;28;20192;-34
2023/12/12 04:56:45;;;;;;;0.00;0.00;;;12.40;74.80;;;;;;5058859;28;20255;-33
2023/12/12 04:59:15;;;;;;;0.00;0.00;;;12.40;74.80;;;;;;5058503;28;20268;-33
2023/12/12 05:01:43;;;;;;;0.00;0.00;;;12.40;74.90;;;;;;5065435;28;20194;-33
2023/12/12 05:04:13;;;;;;;0.00;0.00;;;12.40;74.90;;;;;;5046788;28;20223;-33
2023/12/12 05:06:43;;;;;;;0.00;0.00;;;12.40;74.90;;;;;;5056937;28;20232;-34
2023/12/12 05:09:12;;;;;;;0.00;0.00;;;12.40;74.90;;;;;;5046941;28;20784;-33
2023/12/12 05:11:42;;;;;;;0.00;0.00;;;12.40;74.80;;;;;;5048583;28;20285;-33
2023/12/12 05:14:14;;;;;;;0.00;0.00;;;12.40;74.80;;;;;;5051306;28;20220;-34
2023/12/12 05:16:43;;;;;;;0.00;0.00;;;12.40;74.90;;;;;;5066359;28;20214;-34
2023/12/12 05:19:29;;;;;;;0.00;0.00;;;12.40;74.90;;;;;;5067437;28;20203;-33
2023/12/12 05:21:56;;;;;;;0.00;0.00;;;12.40;74.90;;;;;;5066271;28;20556;-33
2023/12/12 05:24:28;;;;;;;0.00;0.00;;;12.40;75.70;;;;;;5064718;28;20257;-33
2023/12/12 05:26:55;;;;;;;0.00;0.00;;;12.40;75.00;;;;;;5065211;28;20208;-33
2023/12/12 05:29:22;;;;;;;0.00;0.00;;;12.40;74.90;;;;;;5063726;28;20224;-33
2023/12/12 05:31:49;;;;;;;0.00;0.00;;;12.40;74.90;;;;;;5058699;28;20223;-34
2023/12/12 05:34:19;;;;;;;0.00;0.00;;;12.40;74.90;;;;;;5066488;28;20718;-33
2023/12/12 05:36:48;;;;;;;0.00;0.00;;;12.40;75.20;;;;;;5064468;28;20583;-34
2023/12/12 05:39:16;;;;;;;0.00;0.00;;;12.40;74.90;;;;;;5049505;28;20214;-34
2023/12/12 05:41:48;;;;;;;0.00;0.00;;;12.40;74.80;;;;;;5048960;28;20212;-33
2023/12/12 05:44:15;;;;;;;0.00;0.00;;;12.40;74.80;;;;;;5045917;28;20697;-33
2023/12/12 05:46:47;;;;;;;0.00;0.00;;;12.40;74.80;;;;;;5047946;28;20648;-33
2023/12/12 05:49:17;;;;;;;0.00;0.00;;;12.40;74.90;;;;;;5047485;28;20205;-33
2023/12/12 05:51:47;;;;;;;0.00;0.00;;;12.40;74.80;;;;;;5047097;28;20208;-33
2023/12/12 05:54:17;;;;;;;0.00;0.00;;;12.40;74.80;;;;;;5046210;28;20196;-33
2023/12/12 05:56:45;;;;;;;0.00;0.00;;;12.40;74.90;;;;;;5045238;28;20338;-33
2023/12/12 05:59:15;;;;;;;0.00;0.00;;;12.40;74.90;;;;;;5057320;28;20837;-34
2023/12/12 06:01:49;;;;;;;0.00;0.00;;;12.40;74.90;;;;;;5056654;28;20299;-34
2023/12/12 06:04:17;;;;;;;0.00;0.00;;;12.40;74.90;;;;;;5063794;28;20245;-36
2023/12/12 06:06:46;;;;;;;0.00;0.00;;;12.40;74.80;;;;;;5048403;28;20404;-33
2023/12/12 06:09:14;;;;;;;0.00;0.00;;;12.40;74.90;;;;;;5047012;28;20254;-33
2023/12/12 06:11:41;;;;;;;0.00;0.00;;;12.40;75.00;;;;;;5053434;28;20238;-33
2023/12/12 06:14:09;;;;;;;0.00;0.00;;;12.40;74.90;;;;;;5054043;28;20561;-34
2023/12/12 06:16:37;;;;;;;0.00;0.00;;;12.40;74.90;;;;;;5051175;28;20212;-34
2023/12/12 06:19:05;;;;;;;0.00;0.00;;;12.40;74.90;;;;;;5050226;28;20200;-34
2023/12/12 06:21:33;;;;;;;0.00;0.00;;;12.40;74.80;;;;;;5052434;28;20205;-34
2023/12/12 06:24:01;;;;;;;0.00;0.00;;;12.40;74.90;;;;;;5057975;28;20442;-34
2023/12/12 06:26:34;;;;;;;0.00;0.00;;;12.40;74.90;;;;;;5050250;28;20310;-34
2023/12/12 06:29:02;;;;;;;0.00;0.00;;;12.40;75.00;;;;;;5051226;28;20216;-33
2023/12/12 06:31:29;;;;;;;0.00;0.00;;;12.50;75.00;;;;;;5053971;28;20218;-34
2023/12/12 06:33:56;;;;;;;0.00;0.00;;;12.40;75.00;;;;;;5057551;28;20591;-34
2023/12/12 06:36:26;;;;;;;0.00;0.00;;;12.40;75.00;;;;;;5053459;28;20218;-34
2023/12/12 06:38:54;;;;;;;0.00;0.00;;;12.40;75.00;;;;;;5053937;28;20657;-34
2023/12/12 06:41:28;;;;;;;0.00;0.00;;;12.40;75.00;;;;;;5054114;28;20270;-34
2023/12/12 06:44:00;;;;;;;0.00;0.00;;;12.40;75.00;;;;;;5061278;28;20235;-34
2023/12/12 06:46:30;;;;;;;0.00;0.00;;;12.40;74.90;;;;;;5066410;28;20208;-34
2023/12/12 06:49:06;;;;;;;0.00;0.00;;;12.40;74.90;;;;;;5058115;28;20200;-34
2023/12/12 06:51:33;;;;;;;0.00;0.00;;;12.40;74.90;;;;;;5048866;28;20215;-34
2023/12/12 06:54:05;;;;;;;0.00;0.00;;;12.40;74.90;;;;;;5046359;28;20200;-34
2023/12/12 06:56:34;;;;;;;0.00;0.00;;;12.40;74.90;;;;;;5051038;28;20676;-34
2023/12/12 06:59:02;;;;;;;0.00;0.00;;;12.40;74.90;;;;;;5063929;28;20696;-34
2023/12/12 07:01:29;;;;;;;0.00;0.00;;;12.40;75.00;;;;;;5051990;28;20199;-33
2023/12/12 07:03:57;;;;;;;0.00;0.00;;;12.40;75.00;;;;;;5051408;28;20232;-34
2023/12/12 07:06:25;;;;;;;0.00;0.00;;;12.40;75.00;;;;;;5045841;28;20277;-34
2023/12/12 07:08:52;;;;;;;0.00;0.00;;;12.40;75.10;;;;;;5047062;28;20679;-34
2023/12/12 07:11:24;;;;;;;0.00;0.00;;;12.40;75.00;;;;;;5054304;28;20196;-34
2023/12/12 07:13:51;;;;;;;0.00;0.00;;;12.50;75.20;;;;;;5047357;28;20220;-33
2023/12/12 07:16:25;;;;;;;0.00;0.00;;;12.50;75.10;;;;;;5056812;28;20945;-34
2023/12/12 07:18:55;;;;;;;0.00;0.00;;;12.50;75.10;;;;;;5045823;28;20196;-34
2023/12/12 07:21:23;;;;;;;0.00;0.00;;;12.50;75.20;;;;;;5044084;28;20252;-34
2023/12/12 07:23:51;;;;;;;0.00;0.00;;;12.50;75.10;;;;;;5070994;28;20293;-35
2023/12/12 07:26:21;;;;;;;0.00;0.00;;;12.50;75.10;;;;;;5043871;28;20232;-35
2023/12/12 07:28:51;;;;;;;0.00;0.00;;;12.50;75.10;;;;;;5047249;28;20816;-34
2023/12/12 07:31:20;;;;;;;0.00;0.00;;;12.60;75.20;;;;;;5045443;28;20199;-34
2023/12/12 07:33:50;;;;;;;0.00;0.00;;;12.60;75.20;;;;;;5051518;28;20725;-35
2023/12/12 07:36:17;;;;;;;0.00;0.00;;;12.60;75.20;;;;;;5044093;28;20404;-34
2023/12/12 07:38:44;;;;;;;0.00;0.00;;;12.60;75.20;;;;;;5045539;28;20303;-34
2023/12/12 07:41:15;;;;;;;0.00;0.00;;;12.60;75.20;;;;;;5052212;28;20666;-34
2023/12/12 07:43:44;;;;;;;0.00;0.00;;;12.60;75.20;;;;;;5042659;28;20255;-35
2023/12/12 07:46:14;;;;;;;0.00;0.00;;;12.60;75.20;;;;;;5044516;28;20644;-35
2023/12/12 07:48:42;;;;;;;0.00;0.00;;;12.70;75.30;;;;;;5052769;28;20242;-34
2023/12/12 07:51:14;;;;;;;0.00;0.00;;;12.70;75.30;;;;;;5055674;28;20203;-35
2023/12/12 07:53:46;;;;;;;0.00;0.00;;;12.70;75.30;;;;;;5065378;28;20215;-35
2023/12/12 07:56:15;;;;;;;0.00;0.00;;;12.70;75.30;;;;;;5050469;28;20208;-35
2023/12/12 07:58:45;;;;;;;0.00;0.00;;;12.70;75.30;;;;;;5042966;28;20212;-35
2023/12/12 08:01:15;;;;;;;0.00;0.00;;;12.70;75.30;;;;;;5048640;28;20200;-34
2023/12/12 08:03:45;;;;;;;0.00;0.00;;;12.70;75.30;;;;;;5065931;28;20572;-35
2023/12/12 08:06:19;;;;;;;0.00;0.00;;;12.80;75.40;;;;;;5063795;28;20262;-35
2023/12/12 08:08:50;;;;;;;0.00;0.00;;;12.80;75.40;;;;;;5060208;28;20238;-35
2023/12/12 08:11:17;;;;;;;0.00;0.00;;;12.80;75.40;;;;;;5048529;28;20212;-35
2023/12/12 08:13:46;;;;;;;0.00;0.00;;;12.80;75.40;;;;;;5061669;28;20211;-34
2023/12/12 08:16:14;;;;;;;0.00;0.00;;;12.80;75.40;;;;;;5068781;28;20700;-34
2023/12/12 08:18:43;;;;;;;0.00;0.00;;;12.80;75.40;;;;;;5062883;28;20225;-34
2023/12/12 08:21:17;;;;;;;0.00;0.00;;;12.80;75.30;;;;;;5050535;28;20274;-34
2023/12/12 08:23:48;;;;;;;0.00;0.00;;;12.80;75.30;;;;;;5079770;28;20633;-34
2023/12/12 08:26:22;;;;;;;0.00;0.00;;;12.80;75.30;;;;;;5048978;28;20204;-34
2023/12/12 08:28:49;;;;;;;0.00;0.00;;;12.80;75.20;;;;;;5053280;28;20199;-34
2023/12/12 08:31:16;;;;;;;0.00;0.00;;;12.80;75.20;;;;;;5059276;28;20209;-34
2023/12/12 08:33:44;;;;;;;0.00;0.00;;;12.80;75.30;;;;;;5059639;28;20234;-34
2023/12/12 08:36:14;;;;;;;0.00;0.00;;;12.80;75.30;;;;;;5065786;28;20207;-34
2023/12/12 08:38:50;;;;;;;0.00;0.00;;;12.80;75.30;;;;;;5064553;28;20290;-34
2023/12/12 08:41:20;;;;;;;0.00;0.00;;;12.80;75.30;;;;;;5053208;28;20207;-34
2023/12/12 08:43:47;;;;;;;0.00;0.00;;;12.80;75.20;;;;;;5062632;28;20640;-34
2023/12/12 08:46:15;;;;;;;0.00;0.00;;;12.80;75.20;;;;;;5047446;28;20225;-34
2023/12/12 08:48:42;;;;;;;0.00;0.00;;;12.80;75.30;;;;;;5052125;28;20700;-34
2023/12/12 08:51:12;;;;;;;0.00;0.00;;;12.80;75.30;;;;;;5046853;28;20220;-34
2023/12/12 08:53:40;;;;;;;0.00;0.00;;;12.80;75.30;;;;;;5068951;28;20219;-34
2023/12/12 08:56:17;;;;;;;0.00;0.00;;;12.90;75.40;;;;;;5055922;28;20327;-34
2023/12/12 08:58:46;;;;;;;0.00;0.00;;;12.90;75.40;;;;;;5052096;28;20204;-34
2023/12/12 09:01:18;;;;;;;0.00;0.00;;;12.90;75.50;;;;;;5064993;28;20210;-33
2023/12/12 09:03:45;;;;;;;0.00;0.00;;;12.90;75.40;;;;;;5064099;28;20227;-33
2023/12/12 09:06:15;;;;;;;0.00;0.00;;;12.90;75.50;;;;;;5067887;28;20239;-34
2023/12/12 09:08:48;;;;;;;0.00;0.00;;;12.90;75.50;;;;;;5064799;28;20428;-34
2023/12/12 09:11:15;;;;;;;0.00;0.00;;;12.90;75.40;;;;;;5053239;28;20684;-34
2023/12/12 09:13:42;;;;;;;0.00;0.00;;;13.00;75.60;;;;;;5050583;28;20595;-34
2023/12/12 09:16:10;;;;;;;0.00;0.00;;;13.00;75.60;;;;;;5055824;28;20650;-34
2023/12/12 09:18:40;;;;;;;0.00;0.00;;;13.00;75.60;;;;;;5058635;28;20586;-34
2023/12/12 09:21:12;;;;;;;0.00;0.00;;;13.00;75.70;;;;;;5059824;28;20296;-34
2023/12/12 09:23:40;;;;;;;0.00;0.00;;;13.00;75.70;;;;;;5065490;28;20242;-34
2023/12/12 09:26:15;;;;;;;0.00;0.00;;;13.10;75.70;;;;;;5052615;28;20748;-34
2023/12/12 09:28:43;;;;;;;0.00;0.00;;;13.10;75.80;;;;;;5050556;28;20212;-34
2023/12/12 09:31:11;;;;;;;0.00;0.00;;;13.10;75.70;;;;;;5046339;28;20189;-34
2023/12/12 09:33:38;;;;;;;0.00;0.00;;;13.20;75.70;;;;;;5049600;28;20669;-34
2023/12/12 09:36:11;;;;;;;0.00;0.00;;;13.20;75.70;;;;;;5058794;28;20205;-34
2023/12/12 09:38:38;;;;;;;0.00;0.00;;;13.20;75.80;;;;;;5060788;28;20208;-33
2023/12/12 09:41:11;;;;;;;0.00;0.00;;;13.20;75.80;;;;;;5059124;28;20204;-34
2023/12/12 09:43:42;;;;;;;0.00;0.00;;;13.30;75.90;;;;;;5049083;28;20364;-34
2023/12/12 09:46:09;;;;;;;0.00;0.00;;;13.30;75.70;;;;;;5047590;28;20210;-34
2023/12/12 09:48:38;;;;;;;0.00;0.00;;;13.30;75.80;;;;;;5046931;28;20204;-35
2023/12/12 09:51:09;;;;;;;0.00;0.00;;;13.40;75.90;;;;;;5056025;28;20222;-34
2023/12/12 09:53:47;;;;;;;0.00;0.00;;;13.40;75.80;;;;;;5052612;28;20204;-34
2023/12/12 09:56:17;;;;;;;0.00;0.00;;;13.40;75.80;;;;;;5045018;28;20212;-34
2023/12/12 09:58:50;;;;;;;0.00;0.00;;;13.40;75.80;;;;;;5063281;28;20200;-34
2023/12/12 10:01:17;;;;;;;0.00;0.00;;;13.50;75.90;;;;;;5057968;28;20207;-34
2023/12/12 10:03:47;;;;;;;0.00;0.00;;;13.50;75.80;;;;;;5049246;28;20220;-34
2023/12/12 10:06:17;;;;;;;0.00;0.00;;;13.50;75.80;;;;;;5046449;28;20256;-34
2023/12/12 10:08:47;;;;;;;0.00;0.00;;;13.50;75.80;;;;;;5050046;28;20753;-34
2023/12/12 10:11:14;;;;;;;0.00;0.00;;;13.50;75.80;;;;;;5053687;28;20766;-34
2023/12/12 10:13:48;;;;;;;0.00;0.00;;;13.50;75.90;;;;;;5046793;28;20698;-34
2023/12/12 10:16:18;;;;;;;0.00;0.00;;;13.50;75.90;;;;;;5060455;28;20227;-35
2023/12/12 10:18:50;;;;;;;0.00;0.00;;;13.60;76.00;;;;;;5051415;28;20211;-34
2023/12/12 10:21:26;;;;;;;0.00;0.00;;;13.60;76.00;;;;;;5053836;28;20285;-34
2023/12/12 10:23:56;;;;;;;0.00;0.00;;;13.60;76.00;;;;;;5045208;28;20590;-34
2023/12/12 10:26:31;;;;;;;0.00;0.00;;;13.60;76.00;;;;;;5045532;28;20200;-34
2023/12/12 10:29:02;;;;;;;0.00;0.00;;;13.60;76.00;;;;;;5060007;28;20207;-33
2023/12/12 10:31:29;;;;;;;0.00;0.00;;;13.60;76.10;;;;;;5047644;28;20315;-34
2023/12/12 10:33:59;;;;;;;0.00;0.00;;;13.70;76.20;;;;;;5062892;28;20535;-35
2023/12/12 10:36:29;;;;;;;0.00;0.00;;;13.70;76.20;;;;;;5044363;28;20334;-34
2023/12/12 10:39:18;;;;;;;0.00;0.00;;;13.70;76.10;;;;;;5059758;28;20289;-33
2023/12/12 10:41:55;;;;;;;0.00;0.00;;;13.80;76.20;;;;;;5054806;28;20204;-34
2023/12/12 10:44:36;;;;;;;0.00;0.00;;;13.80;76.20;;;;;;5057345;28;20208;-34
2023/12/12 10:47:10;;;;;;;0.00;0.00;;;13.80;76.30;;;;;;5043463;28;21906;-34
2023/12/12 10:49:43;;;;;;;0.00;0.00;;;13.80;76.20;;;;;;5053937;28;20236;-34
2023/12/12 10:52:11;;;;;;;0.00;0.00;;;13.90;76.30;;;;;;5050641;28;20204;-34
2023/12/12 10:54:45;;;;;;;0.00;0.00;;;13.90;76.30;;;;;;5056707;28;20200;-34
2023/12/12 10:57:17;;;;;;;0.00;0.00;;;13.90;76.20;;;;;;5045439;28;20328;-34
2023/12/12 10:59:48;;;;;;;0.00;0.00;;;13.90;76.20;;;;;;5060494;28;20200;-34
2023/12/12 11:02:36;;;;;;;0.00;0.00;;;14.00;76.30;;;;;;5054094;28;20211;-34
2023/12/12 11:05:15;;;;;;;0.00;0.00;;;14.00;76.30;;;;;;5049971;28;20224;-34
2023/12/12 11:07:46;;;;;;;0.00;0.00;;;14.00;76.20;;;;;;5045194;28;20315;-34
2023/12/12 11:10:22;;;;;;;0.00;0.00;;;14.00;76.20;;;;;;5056788;28;20191;-34
2023/12/12 11:12:56;;;;;;;0.00;0.00;;;14.00;76.30;;;;;;5055100;28;20243;-34
2023/12/12 11:15:26;;;;;;;0.00;0.00;;;14.10;76.30;;;;;;5053812;28;20299;-34
2023/12/12 11:17:59;;;;;;;0.00;0.00;;;14.10;76.20;;;;;;5056307;28;20621;-34
2023/12/12 11:20:37;;;;;;;0.00;0.00;;;14.10;76.40;;;;;;5064679;28;20258;-34
2023/12/12 11:23:07;;;;;;;0.00;0.00;;;14.10;76.30;;;;;;5056539;28;20222;-34
2023/12/12 11:25:37;;;;;;;0.00;0.00;;;14.20;76.40;;;;;;5051356;28;20585;-34
2023/12/12 11:28:04;;;;;;;0.00;0.00;;;14.20;76.40;;;;;;5048867;28;20208;-34
2023/12/12 11:30:40;;;;;;;0.00;0.00;;;14.20;76.40;;;;;;5051537;28;20226;-34
2023/12/12 11:33:09;;;;;;;0.00;0.00;;;14.30;76.40;;;;;;5052365;28;20196;-34
2023/12/12 11:35:38;;;;;;;0.00;0.00;;;14.30;76.30;;;;;;5050745;28;20204;-34
2023/12/12 11:38:24;;;;;;;0.00;0.00;;;14.30;76.40;;;;;;5061657;28;20208;-34
2023/12/12 11:41:15;;;;;;;0.00;0.00;;;14.30;76.40;;;;;;5048735;28;20693;-34
2023/12/12 11:43:43;;;;;;;0.00;0.00;;;14.30;76.40;;;;;;5059786;28;20683;-34
2023/12/12 11:46:23;;;;;;;0.00;0.00;;;14.30;76.30;;;;;;5044954;28;20196;-34
2023/12/12 11:48:55;;;;;;;0.00;0.00;;;14.40;76.50;;;;;;5048036;28;20236;-34
2023/12/12 11:51:35;;;;;;;0.00;0.00;;;14.40;76.50;;;;;;5049672;28;20200;-34
2023/12/12 11:54:06;;;;;;;0.00;0.00;;;14.40;76.50;;;;;;5062203;28;20298;-34
2023/12/12 11:56:36;;;;;;;0.00;0.00;;;14.40;76.50;;;;;;5053366;28;20208;-34
2023/12/12 11:59:05;;;;;;;0.00;0.00;;;14.50;76.50;;;;;;5059489;28;20211;-34
2023/12/12 12:01:32;;;;;;;0.00;0.00;;;14.50;76.60;;;;;;5054410;28;20214;-34
2023/12/12 12:04:04;;;;;;;0.00;0.00;;;14.50;76.50;;;;;;5059207;28;20299;-34
2023/12/12 12:06:34;;;;;;;0.00;0.00;;;14.50;76.40;;;;;;5068104;28;20236;-34
2023/12/12 12:09:06;;;;;;;0.00;0.00;;;14.50;76.40;;;;;;5069413;28;20207;-33
2023/12/12 12:11:43;;;;;;;0.00;0.00;;;14.60;76.50;;;;;;5052833;28;20833;-34
2023/12/12 12:14:22;;;;;;;0.00;0.00;;;14.60;77.20;;;;;;5047797;28;20208;-33
2023/12/12 12:16:55;;;;;;;0.00;0.00;;;14.60;76.50;;;;;;5060547;28;20199;-33
2023/12/12 12:19:38;;;;;;;0.00;0.00;;;14.60;76.60;;;;;;5051904;28;20207;-33
2023/12/12 12:22:12;;;;;;;0.00;0.00;;;14.60;76.70;;;;;;5048181;28;20647;-34
2023/12/12 12:24:44;;;;;;;0.00;0.00;;;14.70;76.70;;;;;;5049349;28;20251;-34
2023/12/12 12:27:14;;;;;;;0.00;0.00;;;14.70;76.70;;;;;;5052712;28;20205;-34
2023/12/12 12:30:05;;;;;;;0.00;0.00;;;14.70;76.80;;;;;;5050159;28;20218;-33
2023/12/12 12:32:33;;;;;;;0.00;0.00;;;14.70;76.80;;;;;;5072536;28;20664;-34
2023/12/12 12:35:10;;;;;;;0.00;0.00;;;14.70;76.70;;;;;;5058052;28;20227;-34
2023/12/12 12:37:38;;;;;;;0.00;0.00;;;14.80;76.90;;;;;;5055647;28;20208;-34
2023/12/12 12:40:07;;;;;;;0.00;0.00;;;14.80;76.90;;;;;;5048857;28;20548;-33
2023/12/12 12:42:39;;;;;;;0.00;0.00;;;14.80;76.90;;;;;;5060457;28;20694;-34
2023/12/12 12:45:10;;;;;;;0.00;0.00;;;14.90;76.90;;;;;;5045866;28;20211;-34
2023/12/12 12:47:42;;;;;;;0.00;0.00;;;14.90;76.90;;;;;;5063431;28;20207;-34
2023/12/12 12:50:12;;;;;;;0.00;0.00;;;14.90;76.90;;;;;;5056723;28;20749;-34
2023/12/12 12:52:42;;;;;;;0.00;0.00;;;15.00;77.00;;;;;;5063617;28;20204;-34
2023/12/12 12:55:09;;;;;;;0.00;0.00;;;15.00;76.90;;;;;;5055907;28;20231;-34
2023/12/12 12:57:38;;;;;;;0.00;0.00;;;15.00;76.90;;;;;;5060221;28;20307;-34
2023/12/12 13:00:06;;;;;;;0.00;0.00;;;15.00;76.80;;;;;;5063895;28;20210;-34
2023/12/12 13:02:38;;;;;;;0.00;0.00;;;15.00;76.90;;;;;;5068213;28;20220;-34